Time;durP1;ratioP1;P1;durP2;ratioP2;P2;SDS_P1;SDS_P2;PMS_P1;PMS_P2;Temp;Humidity;BMP_temperature;BMP_pressure;BME280_temperature;BME280_humidity;BME280_pressure;Samples;Min_cycle;Max_cycle;Signal;HPM_P1;HPM_P2
2021/07/16 00:01:25;;;;;;;11.90;6.25;;;16.90;99.90;;;;;;5018091;28;25126;-64
2021/07/16 00:03:51;;;;;;;15.00;7.30;;;16.80;99.90;;;;;;5028941;28;25140;-65
2021/07/16 00:06:17;;;;;;;12.15;6.82;;;16.80;99.90;;;;;;5045033;28;25061;-64
2021/07/16 00:08:42;;;;;;;15.40;6.55;;;16.80;99.90;;;;;;5038822;28;25056;-65
2021/07/16 00:11:08;;;;;;;11.82;6.93;;;16.90;99.90;;;;;;5037680;28;25101;-62
2021/07/16 00:13:33;;;;;;;9.95;7.00;;;16.80;99.90;;;;;;5044136;28;25056;-63
2021/07/16 00:15:59;;;;;;;12.45;6.57;;;16.80;99.90;;;;;;5049391;28;25094;-64
2021/07/16 00:18:25;;;;;;;14.23;6.88;;;16.80;99.90;;;;;;5048258;28;25078;-63
2021/07/16 00:20:50;;;;;;;14.38;6.93;;;16.80;99.90;;;;;;5030289;28;25142;-65
2021/07/16 00:23:17;;;;;;;20.58;7.15;;;16.80;99.90;;;;;;5046612;28;25061;-67
2021/07/16 00:25:43;;;;;;;13.05;7.38;;;16.80;99.90;;;;;;5048136;28;25108;-67
2021/07/16 00:28:08;;;;;;;11.98;6.20;;;16.70;99.90;;;;;;5050591;28;25099;-64
2021/07/16 00:30:35;;;;;;;11.27;6.53;;;16.70;99.90;;;;;;5052453;28;25107;-65
2021/07/16 00:33:02;;;;;;;14.65;7.30;;;16.70;99.90;;;;;;5046996;28;25052;-66
2021/07/16 00:35:28;;;;;;;14.15;6.75;;;16.70;99.90;;;;;;5032652;28;25068;-66
2021/07/16 00:37:53;;;;;;;13.55;7.07;;;16.70;99.90;;;;;;5044902;28;25108;-66
2021/07/16 00:40:19;;;;;;;12.32;6.03;;;16.70;99.90;;;;;;5047395;28;25060;-65
2021/07/16 00:42:44;;;;;;;13.90;7.25;;;16.70;99.90;;;;;;5035962;28;25069;-64
2021/07/16 00:45:12;;;;;;;18.27;7.45;;;16.60;99.90;;;;;;5038469;28;25105;-65
2021/07/16 00:47:39;;;;;;;16.27;7.10;;;16.60;99.90;;;;;;5051208;28;25090;-66
2021/07/16 00:50:10;;;;;;;16.65;6.60;;;16.60;99.90;;;;;;5044283;28;25130;-67
2021/07/16 00:52:37;;;;;;;17.90;7.63;;;16.60;99.90;;;;;;5026629;28;25115;-63
2021/07/16 00:55:04;;;;;;;14.85;6.22;;;16.60;99.90;;;;;;5038262;28;25111;-63
2021/07/16 00:57:30;;;;;;;17.92;7.78;;;16.60;99.90;;;;;;5043422;28;25061;-64
2021/07/16 00:59:56;;;;;;;19.42;7.25;;;16.60;99.90;;;;;;5035644;28;25072;-65
2021/07/16 01:02:22;;;;;;;14.35;7.30;;;16.60;99.90;;;;;;5037942;28;25048;-64
2021/07/16 01:04:48;;;;;;;12.55;7.10;;;16.60;99.90;;;;;;5036385;28;25158;-65
2021/07/16 01:07:13;;;;;;;19.38;7.97;;;16.60;99.90;;;;;;5044358;28;25084;-64
2021/07/16 01:09:39;;;;;;;20.45;8.57;;;16.60;99.90;;;;;;5036206;28;25074;-64
2021/07/16 01:12:07;;;;;;;17.58;7.75;;;16.60;99.90;;;;;;5043088;28;25067;-64
2021/07/16 01:14:32;;;;;;;18.52;7.85;;;16.50;99.90;;;;;;5045477;28;25070;-64
2021/07/16 01:16:59;;;;;;;15.93;7.43;;;16.50;99.90;;;;;;5043321;28;25140;-64
2021/07/16 01:19:45;;;;;;;15.07;7.03;;;16.50;99.90;;;;;;5040484;28;25096;-65
2021/07/16 01:22:14;;;;;;;17.50;6.88;;;16.50;99.90;;;;;;5035614;28;25086;-64
2021/07/16 01:24:40;;;;;;;15.55;7.05;;;16.50;99.90;;;;;;5027707;28;25123;-66
2021/07/16 01:27:06;;;;;;;14.95;6.57;;;16.50;99.90;;;;;;5028437;28;25050;-64
2021/07/16 01:29:31;;;;;;;11.98;6.70;;;16.50;99.90;;;;;;5046225;28;25105;-64
2021/07/16 01:31:57;;;;;;;18.05;6.57;;;16.50;99.90;;;;;;5043936;28;25125;-63
2021/07/16 01:34:23;;;;;;;14.93;7.70;;;16.50;99.90;;;;;;5036514;28;25130;-66
2021/07/16 01:36:48;;;;;;;21.35;7.05;;;16.50;99.90;;;;;;5031574;28;25085;-63
2021/07/16 01:39:14;;;;;;;17.98;7.22;;;16.40;99.90;;;;;;5035896;28;25066;-65
2021/07/16 01:41:39;;;;;;;18.13;8.18;;;16.40;99.90;;;;;;5025492;28;25130;-66
2021/07/16 01:44:06;;;;;;;21.83;7.28;;;16.40;99.90;;;;;;5047609;28;25076;-64
2021/07/16 01:46:32;;;;;;;17.63;9.07;;;16.40;99.90;;;;;;5035610;28;25070;-64
2021/07/16 01:48:58;;;;;;;15.77;7.45;;;16.40;99.90;;;;;;5039535;28;25066;-65
2021/07/16 01:51:24;;;;;;;20.92;7.30;;;16.40;99.90;;;;;;5040661;28;25129;-66
2021/07/16 01:53:49;;;;;;;15.93;7.68;;;16.40;99.90;;;;;;5042359;28;25110;-65
2021/07/16 01:56:17;;;;;;;19.88;7.53;;;16.40;99.90;;;;;;5039657;28;25068;-64
2021/07/16 01:58:43;;;;;;;14.93;7.72;;;16.30;99.90;;;;;;5050659;28;25052;-64
2021/07/16 02:01:14;;;;;;;27.05;8.52;;;16.30;99.90;;;;;;5052736;28;25056;-63
2021/07/16 02:03:42;;;;;;;17.25;7.75;;;16.30;99.90;;;;;;5064276;28;25057;-63
2021/07/16 02:06:08;;;;;;;22.55;8.13;;;16.30;99.90;;;;;;5062189;28;25077;-64
2021/07/16 02:08:33;;;;;;;24.85;7.78;;;16.30;99.90;;;;;;5063114;28;25056;-65
2021/07/16 02:10:59;;;;;;;15.70;8.15;;;16.20;99.90;;;;;;5059144;28;25083;-64
2021/07/16 02:13:25;;;;;;;34.88;8.45;;;16.20;99.90;;;;;;5038600;28;25065;-65
2021/07/16 02:15:52;;;;;;;21.08;8.48;;;16.20;99.90;;;;;;5032768;28;25141;-64
2021/07/16 02:18:19;;;;;;;17.92;7.65;;;16.20;99.90;;;;;;5043236;28;25066;-63
2021/07/16 02:20:45;;;;;;;22.73;8.55;;;16.20;99.90;;;;;;5045483;28;25079;-65
2021/07/16 02:23:15;;;;;;;13.25;7.40;;;16.20;99.90;;;;;;5045913;28;25130;-64
2021/07/16 02:25:40;;;;;;;19.17;7.55;;;16.20;99.90;;;;;;5047816;28;25073;-63
2021/07/16 02:28:08;;;;;;;21.48;8.27;;;16.20;99.90;;;;;;5029664;28;25073;-66
2021/07/16 02:30:34;;;;;;;20.00;7.75;;;16.10;99.90;;;;;;5037882;28;25072;-64
2021/07/16 02:33:02;;;;;;;19.63;7.78;;;16.10;99.90;;;;;;5042298;28;25157;-65
2021/07/16 02:35:31;;;;;;;28.50;8.75;;;16.10;99.90;;;;;;5040451;28;25141;-65
2021/07/16 02:37:59;;;;;;;21.77;7.88;;;16.10;99.90;;;;;;5045013;28;25122;-63
2021/07/16 02:40:24;;;;;;;17.73;7.00;;;16.10;99.90;;;;;;5025910;28;25059;-64
2021/07/16 02:42:50;;;;;;;19.33;7.30;;;16.10;99.90;;;;;;5030810;28;25135;-63
2021/07/16 02:45:19;;;;;;;20.40;7.68;;;16.10;99.90;;;;;;5035367;28;25086;-64
2021/07/16 02:47:45;;;;;;;25.95;8.02;;;16.10;99.90;;;;;;5041345;28;25101;-64
2021/07/16 02:50:14;;;;;;;287.73;17.40;;;16.10;99.90;;;;;;5051708;28;25151;-66
2021/07/16 02:52:42;;;;;;;21.85;6.95;;;16.00;99.90;;;;;;5039135;28;25064;-65
2021/07/16 02:55:08;;;;;;;25.52;7.07;;;16.00;99.90;;;;;;5049013;28;25144;-65
2021/07/16 02:57:34;;;;;;;967.80;310.42;;;15.90;99.90;;;;;;5061864;22;25103;-64
2021/07/16 03:00:00;;;;;;;13.27;6.78;;;15.90;99.90;;;;;;5078722;28;25078;-65
2021/07/16 03:02:29;;;;;;;20.35;6.82;;;15.90;99.90;;;;;;5066177;28;25066;-64
2021/07/16 03:04:56;;;;;;;17.08;6.25;;;15.90;99.90;;;;;;5053695;28;25059;-65
2021/07/16 03:07:22;;;;;;;21.02;6.45;;;16.00;99.90;;;;;;5064379;28;25079;-66
2021/07/16 03:09:47;;;;;;;17.55;6.68;;;15.90;99.90;;;;;;5068051;28;25135;-65
2021/07/16 03:12:13;;;;;;;27.45;7.18;;;15.90;99.90;;;;;;5057922;28;25154;-64
2021/07/16 03:14:39;;;;;;;18.73;5.68;;;15.80;99.90;;;;;;5061204;28;25062;-65
2021/07/16 03:17:05;;;;;;;15.95;6.00;;;15.80;99.90;;;;;;5065320;28;25057;-65
2021/07/16 03:19:31;;;;;;;15.85;6.05;;;15.90;99.90;;;;;;5057886;28;25077;-64
2021/07/16 03:21:56;;;;;;;17.20;5.03;;;15.80;99.90;;;;;;5066366;28;25064;-65
2021/07/16 03:24:22;;;;;;;22.48;5.65;;;15.80;99.90;;;;;;5053500;28;25064;-64
2021/07/16 03:26:47;;;;;;;9.73;4.70;;;15.80;99.90;;;;;;5060281;28;25112;-65
2021/07/16 03:29:13;;;;;;;17.83;5.00;;;15.80;99.90;;;;;;5057084;28;25159;-65
2021/07/16 03:31:39;;;;;;;18.55;5.40;;;15.80;99.90;;;;;;5068720;28;25060;-65
2021/07/16 03:34:05;;;;;;;20.15;5.72;;;15.80;99.90;;;;;;5058350;28;25077;-65
2021/07/16 03:36:31;;;;;;;20.73;5.18;;;15.80;99.90;;;;;;5059672;28;25153;-65
2021/07/16 03:38:56;;;;;;;17.63;5.20;;;15.80;99.90;;;;;;5048504;28;25095;-65
2021/07/16 03:41:22;;;;;;;15.25;5.22;;;15.80;99.90;;;;;;5056983;28;25075;-66
2021/07/16 03:43:48;;;;;;;20.75;5.22;;;15.80;99.90;;;;;;5054487;28;25114;-64
2021/07/16 03:46:15;;;;;;;31.58;5.65;;;15.80;99.90;;;;;;5055707;28;25063;-66
2021/07/16 03:48:40;;;;;;;18.35;5.40;;;15.80;99.90;;;;;;5058475;28;25056;-64
2021/07/16 03:51:06;;;;;;;17.05;4.10;;;15.80;99.90;;;;;;5061519;28;25067;-64
2021/07/16 03:53:31;;;;;;;11.45;4.28;;;15.80;99.90;;;;;;5049022;28;25120;-65
2021/07/16 03:55:57;;;;;;;28.10;5.50;;;15.80;99.90;;;;;;5058817;28;25103;-66
2021/07/16 03:58:22;;;;;;;18.60;4.93;;;15.80;99.90;;;;;;5051371;28;25058;-64
2021/07/16 04:00:48;;;;;;;13.38;4.18;;;15.80;99.90;;;;;;5051539;28;25064;-64
2021/07/16 04:03:15;;;;;;;23.10;4.95;;;15.80;99.90;;;;;;5053208;28;25088;-64
2021/07/16 04:05:42;;;;;;;18.40;5.15;;;15.80;99.90;;;;;;5062192;28;25084;-65
2021/07/16 04:08:09;;;;;;;14.05;5.68;;;15.80;99.90;;;;;;5067991;28;25074;-65
2021/07/16 04:10:37;;;;;;;18.88;5.97;;;15.80;99.90;;;;;;5066505;28;25063;-66
2021/07/16 04:13:06;;;;;;;14.68;4.57;;;15.80;99.90;;;;;;5067749;28;25147;-64
2021/07/16 04:15:32;;;;;;;21.13;5.78;;;15.80;99.90;;;;;;5069471;28;25088;-64
2021/07/16 04:18:01;;;;;;;20.50;4.95;;;15.70;99.90;;;;;;5066407;28;25122;-64
2021/07/16 04:20:29;;;;;;;18.08;5.05;;;15.70;99.90;;;;;;5056836;28;25102;-65
2021/07/16 04:22:56;;;;;;;17.70;5.00;;;15.70;99.90;;;;;;5052146;28;25075;-66
2021/07/16 04:25:21;;;;;;;16.13;4.82;;;15.80;99.90;;;;;;5065936;28;25066;-64
2021/07/16 04:27:49;;;;;;;16.42;4.57;;;15.80;99.90;;;;;;5068979;28;25145;-65
2021/07/16 04:30:16;;;;;;;24.27;5.32;;;15.80;99.90;;;;;;5055974;28;25111;-63
2021/07/16 04:32:41;;;;;;;31.35;5.55;;;15.90;99.90;;;;;;5065941;28;25070;-65
2021/07/16 04:35:08;;;;;;;10.50;4.43;;;15.80;99.90;;;;;;5057038;28;25059;-65
2021/07/16 04:37:35;;;;;;;19.90;6.20;;;15.80;99.90;;;;;;5064287;28;25072;-66
2021/07/16 04:40:06;;;;;;;19.60;4.53;;;15.70;99.90;;;;;;5071453;28;25054;-65
2021/07/16 04:42:32;;;;;;;20.25;5.70;;;15.80;99.90;;;;;;5066211;28;25076;-65
2021/07/16 04:44:57;;;;;;;22.00;5.13;;;15.80;99.90;;;;;;5065679;28;25056;-65
2021/07/16 04:47:23;;;;;;;22.08;5.63;;;15.80;99.90;;;;;;5066367;28;25055;-65
2021/07/16 04:49:48;;;;;;;22.23;6.10;;;15.80;99.90;;;;;;5063953;28;25058;-66
2021/07/16 04:52:14;;;;;;;21.67;6.15;;;15.90;99.90;;;;;;5045613;28;25065;-66
2021/07/16 04:54:40;;;;;;;24.05;5.72;;;15.90;99.90;;;;;;5067027;28;25174;-64
2021/07/16 04:57:08;;;;;;;18.35;5.35;;;15.80;99.90;;;;;;5065183;28;25065;-66
2021/07/16 04:59:35;;;;;;;26.27;5.50;;;15.80;99.90;;;;;;5060494;28;25099;-65
2021/07/16 05:02:00;;;;;;;25.60;4.90;;;15.80;99.90;;;;;;5065294;28;25072;-65
2021/07/16 05:04:26;;;;;;;26.33;5.68;;;15.80;99.90;;;;;;5066627;28;25051;-64
2021/07/16 05:06:51;;;;;;;25.45;5.25;;;15.80;99.90;;;;;;5058701;28;25070;-65
2021/07/16 05:09:17;;;;;;;20.90;5.40;;;15.80;99.90;;;;;;5056661;28;25090;-65
2021/07/16 05:11:43;;;;;;;17.42;5.30;;;15.80;99.90;;;;;;5069429;28;25137;-64
2021/07/16 05:14:09;;;;;;;25.60;5.07;;;15.80;99.90;;;;;;5063265;28;25085;-65
2021/07/16 05:16:35;;;;;;;19.15;5.10;;;15.80;99.90;;;;;;5066738;28;25087;-65
2021/07/16 05:19:00;;;;;;;23.33;4.90;;;15.80;99.90;;;;;;5062978;28;25087;-65
2021/07/16 05:21:26;;;;;;;18.55;4.82;;;15.90;99.90;;;;;;5070920;28;25067;-66
2021/07/16 05:23:52;;;;;;;20.35;4.53;;;16.00;99.90;;;;;;5071617;28;25065;-66
2021/07/16 05:26:18;;;;;;;19.90;4.28;;;15.90;99.90;;;;;;5069723;28;25085;-66
2021/07/16 05:28:45;;;;;;;21.08;5.03;;;15.90;99.90;;;;;;5061982;28;25117;-65
2021/07/16 05:31:11;;;;;;;18.15;5.45;;;15.90;99.90;;;;;;5063205;28;25137;-65
2021/07/16 05:33:37;;;;;;;28.75;4.60;;;15.90;99.90;;;;;;5064704;28;25043;-65
2021/07/16 05:36:04;;;;;;;20.38;4.88;;;15.90;99.90;;;;;;5059088;28;25143;-66
2021/07/16 05:38:30;;;;;;;17.05;4.05;;;15.90;99.90;;;;;;5056850;28;25098;-64
2021/07/16 05:40:56;;;;;;;26.50;5.55;;;15.90;99.90;;;;;;5066245;28;25186;-64
2021/07/16 05:43:22;;;;;;;19.40;4.25;;;16.00;99.90;;;;;;5068510;28;25071;-66
2021/07/16 05:45:48;;;;;;;26.27;4.40;;;15.90;99.90;;;;;;5063782;28;25068;-64
2021/07/16 05:48:14;;;;;;;33.70;5.18;;;16.00;99.90;;;;;;5064719;28;25139;-65
2021/07/16 05:50:41;;;;;;;20.67;4.97;;;15.90;99.90;;;;;;5075096;28;25140;-65
2021/07/16 05:53:07;;;;;;;21.63;4.43;;;15.90;99.90;;;;;;5064664;28;25059;-65
2021/07/16 05:55:34;;;;;;;16.95;3.70;;;16.10;99.90;;;;;;5063117;28;25157;-65
2021/07/16 05:58:00;;;;;;;16.70;4.00;;;16.20;99.90;;;;;;5069628;28;25058;-65
2021/07/16 06:00:27;;;;;;;14.38;3.97;;;16.30;99.90;;;;;;5063618;28;25102;-65
2021/07/16 06:02:53;;;;;;;18.45;5.15;;;16.40;99.90;;;;;;5045068;28;25101;-65
2021/07/16 06:05:19;;;;;;;19.92;4.05;;;16.30;99.90;;;;;;5064211;28;25136;-67
2021/07/16 06:07:44;;;;;;;21.38;4.18;;;16.20;99.90;;;;;;5056231;28;25132;-67
2021/07/16 06:10:11;;;;;;;21.63;4.55;;;16.20;99.90;;;;;;5066029;28;25075;-66
2021/07/16 06:12:37;;;;;;;23.40;3.90;;;16.20;99.90;;;;;;5064563;28;25108;-65
2021/07/16 06:15:05;;;;;;;24.20;4.10;;;16.20;99.90;;;;;;5063984;28;25113;-67
2021/07/16 06:17:32;;;;;;;41.30;5.22;;;16.20;99.90;;;;;;5068469;28;25083;-65
2021/07/16 06:19:58;;;;;;;18.88;4.30;;;16.20;99.90;;;;;;5081329;28;25088;-66
2021/07/16 06:22:24;;;;;;;28.05;5.47;;;16.20;99.90;;;;;;5068814;28;25059;-65
2021/07/16 06:24:49;;;;;;;22.08;4.55;;;16.10;99.90;;;;;;5068756;28;25061;-65
2021/07/16 06:27:15;;;;;;;21.63;4.78;;;16.20;99.90;;;;;;5081597;28;25103;-65
2021/07/16 06:29:40;;;;;;;21.45;4.03;;;16.20;99.90;;;;;;5054797;28;25097;-66
2021/07/16 06:32:06;;;;;;;17.60;4.70;;;16.20;99.90;;;;;;5067156;28;25070;-64
2021/07/16 06:34:32;;;;;;;21.70;4.05;;;16.20;99.90;;;;;;5057610;28;25048;-65
2021/07/16 06:36:58;;;;;;;11.30;3.90;;;16.20;99.90;;;;;;5067113;28;25187;-67
2021/07/16 06:39:24;;;;;;;19.05;4.20;;;16.30;99.90;;;;;;5071132;28;25081;-65
2021/07/16 06:41:49;;;;;;;15.90;4.60;;;16.30;99.90;;;;;;5076215;28;25134;-66
2021/07/16 06:44:15;;;;;;;20.90;4.82;;;16.40;99.90;;;;;;5067677;28;25051;-66
2021/07/16 06:46:42;;;;;;;19.45;4.40;;;16.40;99.90;;;;;;5055251;28;25093;-66
2021/07/16 06:49:08;;;;;;;17.75;4.22;;;16.40;99.90;;;;;;5039663;28;25115;-65
2021/07/16 06:51:35;;;;;;;20.63;4.20;;;16.40;99.90;;;;;;5066331;28;25088;-65
2021/07/16 06:54:01;;;;;;;21.55;4.07;;;16.40;99.90;;;;;;5061281;28;25061;-66
2021/07/16 06:56:27;;;;;;;21.02;3.97;;;16.40;99.90;;;;;;5057765;28;25144;-64
2021/07/16 06:58:53;;;;;;;15.05;4.05;;;16.40;99.90;;;;;;5066270;28;25140;-65
2021/07/16 07:01:20;;;;;;;16.85;4.38;;;16.40;99.90;;;;;;5068467;28;25047;-67
2021/07/16 07:03:45;;;;;;;20.75;3.97;;;16.30;99.90;;;;;;5068245;28;25055;-66
2021/07/16 07:06:11;;;;;;;22.10;5.10;;;16.30;99.90;;;;;;5066900;28;25057;-65
2021/07/16 07:08:37;;;;;;;11.52;3.67;;;16.40;99.90;;;;;;5067087;28;25105;-68
2021/07/16 07:11:02;;;;;;;23.35;4.75;;;16.40;99.90;;;;;;5069622;28;25077;-66
2021/07/16 07:13:28;;;;;;;25.70;4.80;;;16.40;99.90;;;;;;5044372;28;25109;-66
2021/07/16 07:15:53;;;;;;;25.40;5.22;;;16.40;99.90;;;;;;5062599;28;25146;-67
2021/07/16 07:18:19;;;;;;;20.77;3.90;;;16.40;99.90;;;;;;5067947;28;25112;-68
2021/07/16 07:20:45;;;;;;;19.08;4.07;;;16.40;99.90;;;;;;5067371;28;25073;-69
2021/07/16 07:23:11;;;;;;;24.50;5.38;;;16.40;99.90;;;;;;5049919;28;25082;-67
2021/07/16 07:25:37;;;;;;;28.38;4.30;;;16.40;99.90;;;;;;5068086;28;25071;-67
2021/07/16 07:28:03;;;;;;;20.30;4.72;;;16.50;99.90;;;;;;5056261;28;25064;-66
2021/07/16 07:30:29;;;;;;;20.85;4.35;;;16.60;99.90;;;;;;5066795;28;25099;-66
2021/07/16 07:32:55;;;;;;;19.42;4.00;;;16.60;99.90;;;;;;5066650;28;25141;-69
2021/07/16 07:35:21;;;;;;;27.73;6.82;;;16.50;99.90;;;;;;5069536;28;25061;-66
2021/07/16 07:37:47;;;;;;;27.42;5.68;;;16.50;99.90;;;;;;5069838;28;25139;-68
2021/07/16 07:40:15;;;;;;;27.25;4.80;;;16.50;99.90;;;;;;5066372;28;25157;-67
2021/07/16 07:42:40;;;;;;;24.13;4.57;;;16.50;99.90;;;;;;5051373;28;25046;-67
2021/07/16 07:45:07;;;;;;;23.38;4.85;;;16.60;99.90;;;;;;5053813;28;25080;-67
2021/07/16 07:47:33;;;;;;;24.25;4.40;;;16.60;99.90;;;;;;5071982;28;25113;-69
2021/07/16 07:50:06;;;;;;;17.98;4.40;;;16.70;99.90;;;;;;5085050;28;25139;-67
2021/07/16 07:52:32;;;;;;;20.60;5.03;;;16.80;99.90;;;;;;5073113;28;25078;-66
2021/07/16 07:54:57;;;;;;;23.85;5.38;;;16.90;99.90;;;;;;5072106;28;25073;-67
2021/07/16 07:57:23;;;;;;;17.00;4.63;;;16.80;99.90;;;;;;5067841;28;25189;-66
2021/07/16 07:59:48;;;;;;;24.30;4.95;;;16.90;99.90;;;;;;5061698;28;25058;-68
2021/07/16 08:02:14;;;;;;;26.70;5.55;;;17.10;99.90;;;;;;5070765;28;25136;-66
2021/07/16 08:04:41;;;;;;;19.50;5.38;;;17.00;99.90;;;;;;5050924;28;25073;-66
2021/07/16 08:07:06;;;;;;;35.58;6.82;;;17.10;99.90;;;;;;5051678;28;25077;-67
2021/07/16 08:09:32;;;;;;;23.10;4.60;;;16.90;99.90;;;;;;5071651;28;25062;-68
2021/07/16 08:11:59;;;;;;;19.60;5.22;;;16.90;99.90;;;;;;5070612;28;25148;-67
2021/07/16 08:14:24;;;;;;;31.52;5.45;;;16.90;99.90;;;;;;5061168;28;25086;-66
2021/07/16 08:16:50;;;;;;;26.88;4.95;;;16.80;99.90;;;;;;5071045;28;25102;-67
2021/07/16 08:19:19;;;;;;;21.55;4.68;;;16.80;99.90;;;;;;5070493;28;25125;-67
2021/07/16 08:21:46;;;;;;;20.83;5.65;;;16.80;99.90;;;;;;5069932;28;25127;-67
2021/07/16 08:24:12;;;;;;;21.52;6.05;;;16.80;99.90;;;;;;5070991;28;25073;-68
2021/07/16 08:26:38;;;;;;;26.13;5.93;;;17.00;99.90;;;;;;5070033;28;25118;-66
2021/07/16 08:29:04;;;;;;;33.97;5.55;;;17.00;99.90;;;;;;5072292;28;25111;-67
2021/07/16 08:31:29;;;;;;;37.75;6.05;;;16.90;99.90;;;;;;5058235;28;25139;-65
2021/07/16 08:33:55;;;;;;;22.45;5.28;;;16.90;99.90;;;;;;5057334;28;25132;-68
2021/07/16 08:36:21;;;;;;;19.23;5.05;;;16.80;99.90;;;;;;5070541;28;25095;-66
2021/07/16 08:38:46;;;;;;;29.13;5.00;;;16.80;99.90;;;;;;5070511;28;25058;-68
2021/07/16 08:41:12;;;;;;;22.67;5.82;;;16.80;99.90;;;;;;5071428;28;25106;-71
2021/07/16 08:43:41;;;;;;;70.75;11.30;;;17.00;99.90;;;;;;5072834;28;25076;-69
2021/07/16 08:46:09;;;;;;;21.92;5.40;;;17.20;99.90;;;;;;5073789;28;25106;-67
2021/07/16 08:48:37;;;;;;;34.67;5.47;;;17.10;99.90;;;;;;5070856;28;25072;-66
2021/07/16 08:51:03;;;;;;;24.20;5.35;;;17.10;99.90;;;;;;5077008;28;25136;-67
2021/07/16 08:53:31;;;;;;;24.92;5.72;;;17.20;99.90;;;;;;5064133;28;25063;-67
2021/07/16 08:55:56;;;;;;;24.08;5.28;;;17.30;99.90;;;;;;5063103;28;25086;-68
2021/07/16 08:58:22;;;;;;;23.67;5.45;;;17.20;99.90;;;;;;5086572;22;25081;-64
2021/07/16 09:00:48;;;;;;;24.48;5.50;;;17.30;99.90;;;;;;5071831;28;25069;-65
2021/07/16 09:03:14;;;;;;;27.42;5.95;;;17.40;99.90;;;;;;5070459;28;25132;-62
2021/07/16 09:05:42;;;;;;;20.70;5.50;;;17.40;99.90;;;;;;5069943;28;25052;-63
2021/07/16 09:08:20;;;;;;;14.38;5.13;;;17.50;99.90;;;;;;5051702;28;25121;-62
2021/07/16 09:10:48;;;;;;;24.15;5.72;;;17.70;99.90;;;;;;5068251;28;25071;-63
2021/07/16 09:13:14;;;;;;;19.02;4.38;;;17.80;99.90;;;;;;5069347;28;25124;-62
2021/07/16 09:15:48;;;;;;;18.58;5.75;;;17.80;99.90;;;;;;5079746;28;25169;-63
2021/07/16 09:18:24;;;;;;;26.20;5.95;;;17.80;99.90;;;;;;5053181;28;25071;-62
2021/07/16 09:21:02;;;;;;;16.70;5.80;;;17.80;99.90;;;;;;5070716;28;25055;-64
2021/07/16 09:23:36;;;;;;;19.55;5.60;;;17.70;99.90;;;;;;5071209;28;25102;-63
2021/07/16 09:26:08;;;;;;;16.92;4.95;;;17.60;99.90;;;;;;5078174;28;25130;-64
2021/07/16 09:28:36;;;;;;;22.85;5.53;;;17.80;99.90;;;;;;5079892;28;25055;-63
2021/07/16 09:31:13;;;;;;;18.45;4.93;;;17.80;99.90;;;;;;5063240;28;25065;-64
2021/07/16 09:33:43;;;;;;;24.63;6.13;;;17.80;99.90;;;;;;5069600;28;25120;-63
2021/07/16 09:36:09;;;;;;;16.90;4.97;;;17.90;99.90;;;;;;5070152;28;25015;-63
2021/07/16 09:38:35;;;;;;;25.45;6.20;;;18.10;99.90;;;;;;5050949;28;25063;-63
2021/07/16 09:41:06;;;;;;;27.55;5.95;;;18.20;99.90;;;;;;5068764;28;25063;-64
2021/07/16 09:43:32;;;;;;;26.23;6.38;;;18.10;99.90;;;;;;5052026;28;25060;-64
2021/07/16 09:45:59;;;;;;;27.23;6.63;;;18.10;99.90;;;;;;5070003;28;25109;-64
2021/07/16 09:48:32;;;;;;;24.02;5.88;;;18.30;99.90;;;;;;5069125;28;25500;-63
2021/07/16 09:51:23;;;;;;;20.85;5.90;;;18.40;99.90;;;;;;5067769;28;25074;-63
2021/07/16 09:53:50;;;;;;;20.58;5.93;;;18.40;99.90;;;;;;5067527;28;25061;-62
2021/07/16 09:56:20;;;;;;;23.27;6.75;;;18.40;99.90;;;;;;5069084;28;25078;-64
2021/07/16 09:58:48;;;;;;;23.98;5.47;;;18.30;99.90;;;;;;5067228;28;25138;-64
2021/07/16 10:01:15;;;;;;;25.00;5.40;;;18.30;99.90;;;;;;5068756;28;25086;-64
2021/07/16 10:03:41;;;;;;;19.38;5.78;;;18.50;99.90;;;;;;5068116;28;25106;-65
2021/07/16 10:06:14;;;;;;;26.42;5.93;;;18.70;99.90;;;;;;5066693;28;25091;-63
2021/07/16 10:08:41;;;;;;;23.27;5.13;;;18.80;99.90;;;;;;5068703;28;25104;-63
2021/07/16 10:11:07;;;;;;;23.48;5.30;;;18.60;99.90;;;;;;5068070;28;25073;-62
2021/07/16 10:13:35;;;;;;;30.77;5.75;;;18.60;99.90;;;;;;5049337;28;25157;-63
2021/07/16 10:16:05;;;;;;;20.95;5.65;;;18.80;99.90;;;;;;5069579;28;25069;-63
2021/07/16 10:18:31;;;;;;;28.70;5.93;;;19.00;99.90;;;;;;5081024;28;25136;-63
2021/07/16 10:20:57;;;;;;;24.95;5.75;;;19.10;99.90;;;;;;5051457;28;25072;-64
2021/07/16 10:23:27;;;;;;;18.38;5.32;;;19.20;99.90;;;;;;5069014;28;25079;-62
2021/07/16 10:25:54;;;;;;;30.50;6.70;;;18.90;99.90;;;;;;5068891;28;25105;-62
2021/07/16 10:28:35;;;;;;;22.85;5.75;;;18.90;99.90;;;;;;5067938;28;25140;-66
2021/07/16 10:31:02;;;;;;;19.95;5.10;;;18.70;99.90;;;;;;5069494;28;25101;-63
2021/07/16 10:33:36;;;;;;;21.48;5.65;;;18.80;99.90;;;;;;5068052;28;25064;-62
2021/07/16 10:36:03;;;;;;;32.90;5.88;;;19.00;99.90;;;;;;5074044;28;25043;-61
2021/07/16 10:38:34;;;;;;;22.40;5.40;;;18.90;99.90;;;;;;5076555;28;25109;-64
2021/07/16 10:41:00;;;;;;;29.17;6.05;;;19.00;99.90;;;;;;5058447;28;25052;-64
2021/07/16 10:43:26;;;;;;;17.55;5.07;;;19.40;99.90;;;;;;5068863;28;25065;-63
2021/07/16 10:45:52;;;;;;;27.45;5.90;;;19.50;99.90;;;;;;5068348;28;25135;-62
2021/07/16 10:48:19;;;;;;;30.95;5.63;;;19.10;99.90;;;;;;5068646;28;25113;-63
2021/07/16 10:50:48;;;;;;;23.67;5.80;;;18.90;99.90;;;;;;5067855;28;25066;-63
2021/07/16 10:53:17;;;;;;;14.05;4.80;;;19.10;99.90;;;;;;5067909;28;25134;-63
2021/07/16 10:55:42;;;;;;;14.38;4.30;;;19.30;99.90;;;;;;5069464;28;25110;-63
2021/07/16 10:58:52;;;;;;;19.98;5.47;;;19.50;99.90;;;;;;5070145;28;25090;-64
2021/07/16 11:01:33;;;;;;;16.98;5.40;;;19.60;99.90;;;;;;4987234;28;25126;-63
2021/07/16 11:04:01;;;;;;;19.80;5.38;;;19.70;99.90;;;;;;5055630;28;25080;-64
2021/07/16 11:06:52;;;;;;;22.52;4.93;;;19.70;99.90;;;;;;5056195;28;25113;-63
2021/07/16 11:09:40;;;;;;;20.83;5.22;;;19.60;99.90;;;;;;5066813;28;25149;-64
2021/07/16 11:12:24;;;;;;;18.08;6.68;;;19.60;99.90;;;;;;5042240;28;25080;-64
2021/07/16 11:14:52;;;;;;;27.85;6.32;;;19.50;99.90;;;;;;5054309;28;25083;-64
2021/07/16 11:17:29;;;;;;;19.02;5.32;;;19.50;99.90;;;;;;5067802;28;25537;-63
2021/07/16 11:20:19;;;;;;;21.60;5.90;;;19.50;99.90;;;;;;5069915;28;25152;-65
2021/07/16 11:23:01;;;;;;;24.10;6.10;;;19.60;99.90;;;;;;5071999;28;25087;-64
2021/07/16 11:25:28;;;;;;;17.92;5.53;;;19.40;99.90;;;;;;5071870;28;25063;-64
2021/07/16 11:27:54;;;;;;;28.88;6.05;;;19.60;99.90;;;;;;5071198;28;25068;-65
2021/07/16 11:30:20;;;;;;;21.67;5.22;;;20.00;99.90;;;;;;5071321;28;25136;-63
2021/07/16 11:32:46;;;;;;;22.27;4.85;;;20.10;99.90;;;;;;5071648;28;25054;-63
2021/07/16 11:35:13;;;;;;;16.10;5.40;;;20.30;99.90;;;;;;5070054;28;25094;-63
2021/07/16 11:37:44;;;;;;;25.30;5.20;;;20.30;99.90;;;;;;5071534;28;25151;-66
2021/07/16 11:40:11;;;;;;;22.30;5.25;;;20.10;99.90;;;;;;5072866;28;25119;-65
2021/07/16 11:42:41;;;;;;;26.73;5.88;;;20.00;99.90;;;;;;5077595;28;25064;-64
2021/07/16 11:45:10;;;;;;;31.65;6.47;;;20.20;99.90;;;;;;5077344;28;25058;-65
2021/07/16 11:47:37;;;;;;;18.05;5.38;;;20.30;99.90;;;;;;5072538;28;25119;-66
2021/07/16 11:50:08;;;;;;;27.38;6.50;;;20.50;99.90;;;;;;5072100;28;25121;-65
2021/07/16 11:52:35;;;;;;;18.35;4.70;;;20.10;99.90;;;;;;5070378;28;25057;-63
2021/07/16 11:55:09;;;;;;;24.33;6.50;;;20.40;99.90;;;;;;5071942;28;25068;-62
2021/07/16 11:57:44;;;;;;;29.98;6.68;;;20.30;99.90;;;;;;5073235;28;25067;-65
2021/07/16 12:00:11;;;;;;;26.95;5.55;;;20.00;99.90;;;;;;5071349;28;25100;-65
2021/07/16 12:02:36;;;;;;;26.70;6.15;;;20.20;99.90;;;;;;5065218;28;25051;-66
2021/07/16 12:05:02;;;;;;;19.83;5.63;;;20.70;99.90;;;;;;5061451;28;25064;-66
2021/07/16 12:07:36;;;;;;;20.98;5.40;;;20.90;99.90;;;;;;5070031;28;25073;-66
2021/07/16 12:10:11;;;;;;;17.65;5.50;;;20.90;99.90;;;;;;5070637;28;25101;-68
2021/07/16 12:12:38;;;;;;;25.95;5.97;;;20.70;99.90;;;;;;5069481;28;25120;-67
2021/07/16 12:15:07;;;;;;;29.45;5.90;;;20.60;99.90;;;;;;5071356;28;25063;-64
2021/07/16 12:17:36;;;;;;;22.80;6.22;;;20.70;99.90;;;;;;5072341;28;25052;-64
2021/07/16 12:20:04;;;;;;;19.45;6.00;;;20.60;99.90;;;;;;5054476;28;25055;-63
2021/07/16 12:22:33;;;;;;;23.83;5.85;;;20.70;99.90;;;;;;5082761;28;25099;-65
2021/07/16 12:25:01;;;;;;;20.17;5.82;;;20.60;99.90;;;;;;5077959;28;25084;-65
2021/07/16 12:27:27;;;;;;;16.65;5.82;;;20.50;99.90;;;;;;5074962;28;25075;-65
2021/07/16 12:29:58;;;;;;;19.35;6.05;;;20.80;99.90;;;;;;5071297;28;25077;-63
2021/07/16 12:32:44;;;;;;;26.45;6.38;;;20.80;99.90;;;;;;5070524;28;25135;-65
2021/07/16 12:35:21;;;;;;;31.45;6.97;;;20.80;99.90;;;;;;5069333;28;25060;-64
2021/07/16 12:37:52;;;;;;;22.25;6.03;;;20.90;99.90;;;;;;5071259;28;25058;-65